createdAt,value
2018-03-31T00:00:08.441Z,87.59
2018-03-31T00:01:16.402Z,87.77
2018-03-31T00:02:24.480Z,87.77
2018-03-31T00:03:32.590Z,88.06
2018-03-31T00:04:40.566Z,87.49
2018-03-31T00:05:48.618Z,88.63
2018-03-31T00:06:56.694Z,88.25
2018-03-31T00:08:12.387Z,87.68
2018-03-31T00:09:12.783Z,87.68
2018-03-31T00:10:20.918Z,86.93
2018-03-31T00:11:28.966Z,86.83
2018-03-31T00:12:36.990Z,88.06
2018-03-31T00:13:45.039Z,87.59
2018-03-31T00:14:53.150Z,88.44
2018-03-31T00:16:01.160Z,87.21
2018-03-31T00:17:09.216Z,88.16
2018-03-31T00:18:17.299Z,87.21
2018-03-31T00:19:25.390Z,86.93
2018-03-31T00:20:33.433Z,86.93
2018-03-31T00:21:41.444Z,85.41
2018-03-31T00:22:49.547Z,86.26
2018-03-31T00:23:57.582Z,86.26
2018-03-31T00:25:06.987Z,86.64
2018-03-31T00:26:14.489Z,86.07
2018-03-31T00:27:22.545Z,87.21
2018-03-31T00:28:30.633Z,88.25
2018-03-31T00:29:38.653Z,88.54
2018-03-31T00:30:46.729Z,86.83
2018-03-31T00:31:54.844Z,86.93
2018-03-31T00:33:02.896Z,87.59
2018-03-31T00:34:11.053Z,87.97
2018-03-31T00:35:19.115Z,86.93
2018-03-31T00:36:27.034Z,87.59
2018-03-31T00:37:35.271Z,87.30
2018-03-31T00:38:43.181Z,86.64
2018-03-31T00:39:51.237Z,86.26
2018-03-31T00:40:59.270Z,87.21
2018-03-31T00:42:07.365Z,87.49
2018-03-31T00:43:15.385Z,87.68
2018-03-31T00:44:23.461Z,86.83
2018-03-31T00:45:31.507Z,86.64
2018-03-31T00:46:39.655Z,87.49
2018-03-31T00:47:47.940Z,88.25
2018-03-31T00:48:55.672Z,87.21
2018-03-31T00:50:03.811Z,88.35
2018-03-31T00:51:11.800Z,88.63
2018-03-31T00:52:19.905Z,88.25
2018-03-31T00:53:27.930Z,88.82
2018-03-31T00:54:36.005Z,87.87
2018-03-31T00:55:44.092Z,89.29
2018-03-31T00:56:52.143Z,88.54
2018-03-31T00:58:00.146Z,89.39
2018-03-31T00:59:08.265Z,89.48
2018-03-31T01:00:16.296Z,89.86
2018-03-31T01:01:24.420Z,88.73
2018-03-31T01:02:32.412Z,89.39
2018-03-31T01:03:40.497Z,89.29
2018-03-31T01:04:48.510Z,89.77
2018-03-31T01:05:56.625Z,89.58
2018-03-31T01:07:04.639Z,87.87
2018-03-31T01:08:12.773Z,87.30
2018-03-31T01:09:20.805Z,86.35
2018-03-31T01:10:28.820Z,86.45
2018-03-31T01:11:36.933Z,86.83
2018-03-31T01:12:44.930Z,86.74
2018-03-31T01:13:53.103Z,87.87
2018-03-31T01:15:01.058Z,86.93
2018-03-31T01:16:09.183Z,86.88
2018-03-31T01:17:17.162Z,87.12
2018-03-31T01:18:25.293Z,86.50
2018-03-31T01:19:33.323Z,86.41
2018-03-31T01:20:41.358Z,87.07
2018-03-31T01:21:49.445Z,86.79
2018-03-31T01:22:57.564Z,87.73
2018-03-31T01:24:05.546Z,87.73
2018-03-31T01:25:13.601Z,86.88
2018-03-31T01:26:21.712Z,87.73
2018-03-31T01:27:29.714Z,88.30
2018-03-31T01:28:37.766Z,87.83
2018-03-31T01:29:45.913Z,88.30
2018-03-31T01:30:53.942Z,88.30
2018-03-31T01:32:02.013Z,88.78
2018-03-31T01:33:10.032Z,89.25
2018-03-31T01:34:18.138Z,90.10
2018-03-31T01:35:26.201Z,88.68
2018-03-31T01:36:34.228Z,89.34
2018-03-31T01:37:42.251Z,88.87
2018-03-31T01:38:50.300Z,88.02
2018-03-31T01:39:58.391Z,87.35
2018-03-31T01:41:06.486Z,88.11
2018-03-31T01:42:14.520Z,86.98
2018-03-31T01:43:22.583Z,88.21
2018-03-31T01:44:30.598Z,89.15
2018-03-31T01:45:38.693Z,88.87
2018-03-31T01:46:46.778Z,87.73
2018-03-31T01:47:54.767Z,88.21
2018-03-31T01:49:02.856Z,88.11
2018-03-31T01:50:10.886Z,87.92
2018-03-31T01:51:18.968Z,88.30
2018-03-31T01:52:27.278Z,88.40
2018-03-31T01:53:35.189Z,89.44
2018-03-31T01:54:43.198Z,88.45
2018-03-31T01:55:51.264Z,88.73
2018-03-31T01:56:59.286Z,90.06
2018-03-31T01:58:07.311Z,87.98
2018-03-31T01:59:15.413Z,88.73
2018-03-31T02:00:23.481Z,89.15
2018-03-31T02:01:31.543Z,90.06
2018-03-31T02:02:39.589Z,90.06
2018-03-31T02:03:47.651Z,90.15
2018-03-31T02:04:55.680Z,89.77
2018-03-31T02:06:06.268Z,88.35
2018-03-31T02:07:11.812Z,87.88
2018-03-31T02:08:19.892Z,89.39
2018-03-31T02:09:27.996Z,89.77
2018-03-31T02:10:36.016Z,88.02
2018-03-31T02:11:44.089Z,88.92
2018-03-31T02:12:52.106Z,87.88
2018-03-31T02:14:00.176Z,87.98
2018-03-31T02:15:08.196Z,88.78
2018-03-31T02:16:16.383Z,89.53
2018-03-31T02:17:24.324Z,88.87
2018-03-31T02:18:32.440Z,88.30
2018-03-31T02:19:40.447Z,87.98
2018-03-31T02:20:48.599Z,87.92
2018-03-31T02:21:56.560Z,88.87
2018-03-31T02:23:04.686Z,88.26
2018-03-31T02:24:12.694Z,87.88
2018-03-31T02:25:20.789Z,88.30
2018-03-31T02:26:28.843Z,88.21
2018-03-31T02:27:36.885Z,88.59
2018-03-31T02:28:44.923Z,87.98
2018-03-31T02:29:53.038Z,88.92
2018-03-31T02:31:01.103Z,89.01
2018-03-31T02:32:09.145Z,88.64
2018-03-31T02:33:17.464Z,89.01
2018-03-31T02:34:25.215Z,88.87
2018-03-31T02:35:33.335Z,89.49
2018-03-31T02:36:41.369Z,89.30
2018-03-31T02:37:49.460Z,88.35
2018-03-31T02:38:58.973Z,87.98
2018-03-31T02:40:05.584Z,88.82
2018-03-31T02:41:13.610Z,88.82
2018-03-31T02:42:21.663Z,89.49
2018-03-31T02:43:29.694Z,89.30
2018-03-31T02:44:37.970Z,89.01
2018-03-31T02:45:45.804Z,89.39
2018-03-31T02:46:53.858Z,89.20
2018-03-31T02:48:01.920Z,88.82
2018-03-31T02:49:09.972Z,88.07
2018-03-31T02:50:18.054Z,87.59
2018-03-31T02:51:26.129Z,88.45
2018-03-31T02:52:34.216Z,88.35
2018-03-31T02:53:42.269Z,87.98
2018-03-31T02:54:50.334Z,88.54
2018-03-31T02:55:58.380Z,88.82
2018-03-31T02:57:06.385Z,88.45
2018-03-31T02:58:14.517Z,88.26
2018-03-31T02:59:22.529Z,89.20
2018-03-31T03:00:30.645Z,89.49
2018-03-31T03:01:38.669Z,89.01
2018-03-31T03:02:46.731Z,89.30
2018-03-31T03:03:54.846Z,88.54
2018-03-31T03:05:02.818Z,88.82
2018-03-31T03:06:10.998Z,89.01
2018-03-31T03:07:18.930Z,89.39
2018-03-31T03:08:26.992Z,89.96
2018-03-31T03:09:35.108Z,89.49
2018-03-31T03:10:43.128Z,89.01
2018-03-31T03:11:51.164Z,89.30
2018-03-31T03:12:59.296Z,89.30
2018-03-31T03:14:07.290Z,89.01
2018-03-31T03:15:15.437Z,89.01
2018-03-31T03:16:23.450Z,87.59
2018-03-31T03:17:31.458Z,88.82
2018-03-31T03:18:39.618Z,88.26
2018-03-31T03:19:51.593Z,88.64
2018-03-31T03:20:58.113Z,89.01
2018-03-31T03:22:06.167Z,89.49
2018-03-31T03:23:14.274Z,89.39
2018-03-31T03:24:22.350Z,90.06
2018-03-31T03:25:30.339Z,89.96
2018-03-31T03:26:38.465Z,90.15
2018-03-31T03:27:46.466Z,89.68
2018-03-31T03:28:54.523Z,90.34
2018-03-31T03:30:02.570Z,90.53
2018-03-31T03:31:10.620Z,90.53
2018-03-31T03:32:18.725Z,90.53
2018-03-31T03:33:27.085Z,90.44
2018-03-31T03:34:34.798Z,89.77
2018-03-31T03:35:42.962Z,90.06
2018-03-31T03:36:50.953Z,89.77
2018-03-31T03:37:58.982Z,89.49
2018-03-31T03:39:07.070Z,88.82
2018-03-31T03:40:15.140Z,90.06
2018-03-31T03:41:23.152Z,89.30
2018-03-31T03:42:31.306Z,88.73
2018-03-31T03:43:39.267Z,88.82
2018-03-31T03:44:47.349Z,88.82
2018-03-31T03:45:55.433Z,89.30
2018-03-31T03:47:03.492Z,89.30
2018-03-31T03:48:11.517Z,89.01
2018-03-31T03:49:19.573Z,89.58
2018-03-31T03:50:27.700Z,90.06
2018-03-31T03:51:35.722Z,89.92
2018-03-31T03:52:43.752Z,90.30
2018-03-31T03:53:51.834Z,90.58
2018-03-31T03:54:59.855Z,90.30
2018-03-31T03:56:08.018Z,90.44
2018-03-31T03:57:16.006Z,89.92
2018-03-31T03:58:24.065Z,89.73
2018-03-31T03:59:32.161Z,89.44
2018-03-31T04:00:40.224Z,89.16
2018-03-31T04:01:48.222Z,90.01
2018-03-31T04:02:56.289Z,89.82
2018-03-31T04:04:04.342Z,90.11
2018-03-31T04:05:12.486Z,90.01
2018-03-31T04:06:20.448Z,90.01
2018-03-31T04:07:28.595Z,90.01
2018-03-31T04:08:36.628Z,90.96
2018-03-31T04:09:44.711Z,91.15
2018-03-31T04:10:52.680Z,90.48
2018-03-31T04:12:00.844Z,90.39
2018-03-31T04:13:08.860Z,90.48
2018-03-31T04:14:16.889Z,90.39
2018-03-31T04:15:24.981Z,90.96
2018-03-31T04:16:32.989Z,90.96
2018-03-31T04:17:41.166Z,91.72
2018-03-31T04:18:49.110Z,92.66
2018-03-31T04:19:57.209Z,92.38
2018-03-31T04:21:05.297Z,92.66
2018-03-31T04:22:13.284Z,92.57
2018-03-31T04:23:21.543Z,93.32
2018-03-31T04:24:29.413Z,92.94
2018-03-31T04:25:37.463Z,92.47
2018-03-31T04:26:45.515Z,93.04
2018-03-31T04:27:53.582Z,92.94
2018-03-31T04:29:01.710Z,92.76
2018-03-31T04:30:09.730Z,93.42
2018-03-31T04:31:17.772Z,93.32
2018-03-31T04:32:27.301Z,93.32
2018-03-31T04:33:33.862Z,94.08
2018-03-31T04:34:42.029Z,93.89
2018-03-31T04:35:50.052Z,93.42
2018-03-31T04:36:58.082Z,94.27
2018-03-31T04:38:06.100Z,94.84
2018-03-31T04:39:14.228Z,94.93
2018-03-31T04:40:22.222Z,94.93
2018-03-31T04:41:30.334Z,94.65
2018-03-31T04:42:38.483Z,94.37
2018-03-31T04:43:46.398Z,94.84
2018-03-31T04:44:54.465Z,95.12
2018-03-31T04:46:02.611Z,94.56
2018-03-31T04:47:10.610Z,95.12
2018-03-31T04:48:18.659Z,94.93
2018-03-31T04:49:26.744Z,94.56
2018-03-31T04:50:34.768Z,94.56
2018-03-31T04:51:42.841Z,95.31
2018-03-31T04:52:50.898Z,94.46
2018-03-31T04:53:58.981Z,94.18
2018-03-31T04:55:06.982Z,94.08
2018-03-31T04:56:15.120Z,94.46
2018-03-31T04:57:23.135Z,94.74
2018-03-31T04:58:31.149Z,94.56
2018-03-31T04:59:39.358Z,94.84
2018-03-31T05:00:47.315Z,95.12
2018-03-31T05:01:55.327Z,94.84
2018-03-31T05:03:03.395Z,95.21
2018-03-31T05:04:11.429Z,95.21
2018-03-31T05:05:19.559Z,96.16
2018-03-31T05:06:27.571Z,96.45
2018-03-31T05:07:35.694Z,96.64
2018-03-31T05:08:43.687Z,95.78
2018-03-31T05:09:51.804Z,96.64
2018-03-31T05:10:59.831Z,96.16
2018-03-31T05:12:07.875Z,96.54
2018-03-31T05:13:15.967Z,95.97
2018-03-31T05:14:23.993Z,95.97
2018-03-31T05:15:32.032Z,95.97
2018-03-31T05:16:40.134Z,95.88
2018-03-31T05:17:48.161Z,95.97
2018-03-31T05:18:56.223Z,94.84
2018-03-31T05:20:04.366Z,94.84
2018-03-31T05:21:12.380Z,95.40
2018-03-31T05:22:20.422Z,95.69
2018-03-31T05:23:28.466Z,95.03
2018-03-31T05:24:36.599Z,94.65
2018-03-31T05:25:45.422Z,95.31
2018-03-31T05:26:52.623Z,94.37
2018-03-31T05:28:00.736Z,94.27
2018-03-31T05:29:08.767Z,94.27
2018-03-31T05:30:16.821Z,95.12
2018-03-31T05:31:24.904Z,94.93
2018-03-31T05:32:32.980Z,95.50
2018-03-31T05:33:40.979Z,95.59
2018-03-31T05:34:49.117Z,95.78
2018-03-31T05:35:57.095Z,96.07
2018-03-31T05:37:05.164Z,95.88
2018-03-31T05:38:13.284Z,95.40
2018-03-31T05:39:21.312Z,95.78
2018-03-31T05:40:29.342Z,96.45
2018-03-31T05:41:37.396Z,95.36
2018-03-31T05:42:45.541Z,94.65
2018-03-31T05:43:53.533Z,94.93
2018-03-31T05:45:01.608Z,94.84
2018-03-31T05:46:09.685Z,94.93
2018-03-31T05:47:17.691Z,95.03
2018-03-31T05:48:25.741Z,95.31
2018-03-31T05:49:33.812Z,94.32
2018-03-31T05:50:41.938Z,94.23
2018-03-31T05:51:50.002Z,93.42
2018-03-31T05:52:58.012Z,93.18
2018-03-31T05:54:06.085Z,93.56
2018-03-31T05:55:14.133Z,94.13
2018-03-31T05:56:22.170Z,94.04
2018-03-31T05:57:30.271Z,93.94
2018-03-31T05:58:38.280Z,94.13
2018-03-31T05:59:46.354Z,94.79
2018-03-31T06:00:54.455Z,94.70
2018-03-31T06:02:02.511Z,94.79
2018-03-31T06:03:10.530Z,94.70
2018-03-31T06:04:18.661Z,94.70
2018-03-31T06:05:26.640Z,94.51
2018-03-31T06:06:34.810Z,95.07
2018-03-31T06:07:42.818Z,95.07
2018-03-31T06:08:50.818Z,94.42
2018-03-31T06:09:58.925Z,94.79
2018-03-31T06:11:07.016Z,94.42
2018-03-31T06:12:15.082Z,94.51
2018-03-31T06:13:23.099Z,93.08
2018-03-31T06:14:31.270Z,92.52
2018-03-31T06:15:39.187Z,92.05
2018-03-31T06:16:47.242Z,92.00
2018-03-31T06:17:55.385Z,93.70
2018-03-31T06:19:03.424Z,93.32
2018-03-31T06:20:11.450Z,92.47
2018-03-31T06:21:19.482Z,92.38
2018-03-31T06:22:27.582Z,92.57
2018-03-31T06:23:35.593Z,91.62
2018-03-31T06:24:43.747Z,91.90
2018-03-31T06:25:51.793Z,91.14
2018-03-31T06:26:59.874Z,91.52
2018-03-31T06:28:07.857Z,92.94
2018-03-31T06:29:15.922Z,91.14
2018-03-31T06:30:24.331Z,91.14
2018-03-31T06:31:32.491Z,91.05
2018-03-31T06:32:40.473Z,90.95
2018-03-31T06:33:48.521Z,91.24
2018-03-31T06:34:56.680Z,91.24
2018-03-31T06:36:04.716Z,91.43
2018-03-31T06:37:12.730Z,91.05
2018-03-31T06:38:20.775Z,92.04
2018-03-31T06:39:28.878Z,91.09
2018-03-31T06:40:36.932Z,90.62
2018-03-31T06:41:44.954Z,89.39
2018-03-31T06:42:53.043Z,90.15
2018-03-31T06:44:01.109Z,88.63
2018-03-31T06:45:09.151Z,90.05
2018-03-31T06:46:17.249Z,89.58
2018-03-31T06:47:25.275Z,88.06
2018-03-31T06:48:33.349Z,87.21
2018-03-31T06:49:41.412Z,87.63
2018-03-31T06:50:49.435Z,85.50
2018-03-31T06:51:57.581Z,86.93
2018-03-31T06:53:05.573Z,87.63
2018-03-31T06:54:13.616Z,87.25
2018-03-31T06:55:21.683Z,85.93
2018-03-31T06:56:29.812Z,86.40
2018-03-31T06:57:37.860Z,85.26
2018-03-31T06:58:45.863Z,86.68
2018-03-31T06:59:54.007Z,86.68
2018-03-31T07:01:02.012Z,86.21
2018-03-31T07:02:10.118Z,86.59
2018-03-31T07:03:18.199Z,87.63
2018-03-31T07:04:30.971Z,87.82
2018-03-31T07:05:34.249Z,86.68
2018-03-31T07:06:42.307Z,87.45
2018-03-31T07:07:50.468Z,87.25
2018-03-31T07:09:00.015Z,87.45
2018-03-31T07:10:06.598Z,85.83
2018-03-31T07:11:14.563Z,85.17
2018-03-31T07:12:22.691Z,84.78
2018-03-31T07:13:30.694Z,85.45
2018-03-31T07:14:38.751Z,85.17
2018-03-31T07:15:46.855Z,84.98
2018-03-31T07:16:54.868Z,85.07
2018-03-31T07:18:02.972Z,85.83
2018-03-31T07:19:11.078Z,85.74
2018-03-31T07:20:19.077Z,85.64
2018-03-31T07:21:27.153Z,84.88
2018-03-31T07:22:35.181Z,85.07
2018-03-31T07:23:43.273Z,85.74
2018-03-31T07:24:51.336Z,86.40
2018-03-31T07:25:59.501Z,86.21
2018-03-31T07:27:07.449Z,86.59
2018-03-31T07:28:15.496Z,86.30
2018-03-31T07:29:23.567Z,86.87
2018-03-31T07:30:31.673Z,86.02
2018-03-31T07:31:39.721Z,85.36
2018-03-31T07:32:47.809Z,84.78
2018-03-31T07:33:55.815Z,84.59
2018-03-31T07:35:03.924Z,85.45
2018-03-31T07:36:11.910Z,85.74
2018-03-31T07:37:20.048Z,84.98
2018-03-31T07:38:28.055Z,85.26
2018-03-31T07:39:36.131Z,84.78
2018-03-31T07:40:45.156Z,85.83
2018-03-31T07:41:52.300Z,86.11
2018-03-31T07:43:00.311Z,86.49
2018-03-31T07:44:08.473Z,86.30
2018-03-31T07:45:18.149Z,86.21
2018-03-31T07:46:24.479Z,85.17
2018-03-31T07:47:32.543Z,85.17
2018-03-31T07:48:40.686Z,84.98
2018-03-31T07:49:51.526Z,84.12
2018-03-31T07:50:57.075Z,83.84
2018-03-31T07:52:04.934Z,84.36
2018-03-31T07:53:12.933Z,84.98
2018-03-31T07:54:21.077Z,84.88
2018-03-31T07:55:29.720Z,84.55
2018-03-31T07:56:37.037Z,84.26
2018-03-31T07:57:45.162Z,84.69
2018-03-31T07:58:53.338Z,85.07
2018-03-31T08:00:01.318Z,84.31
2018-03-31T08:01:09.290Z,83.88
2018-03-31T08:02:17.434Z,84.74
2018-03-31T08:03:25.430Z,84.78
2018-03-31T08:04:34.086Z,84.26
2018-03-31T08:05:42.087Z,83.88
2018-03-31T08:06:49.702Z,83.97
2018-03-31T08:07:58.296Z,83.50
2018-03-31T08:09:05.836Z,83.40
2018-03-31T08:10:14.141Z,83.88
2018-03-31T08:11:21.945Z,83.97
2018-03-31T08:12:35.572Z,84.45
2018-03-31T08:13:37.980Z,84.83
2018-03-31T08:14:46.095Z,83.69
2018-03-31T08:15:57.415Z,83.03
2018-03-31T08:17:02.232Z,83.88
2018-03-31T08:18:10.221Z,85.02
2018-03-31T08:19:18.348Z,85.02
2018-03-31T08:20:26.381Z,83.31
2018-03-31T08:21:34.455Z,83.50
2018-03-31T08:22:42.480Z,83.12
2018-03-31T08:23:50.539Z,83.03
2018-03-31T08:24:58.576Z,82.55
2018-03-31T08:26:06.702Z,83.22
2018-03-31T08:27:14.735Z,83.97
2018-03-31T08:28:22.867Z,83.88
2018-03-31T08:29:30.833Z,82.36
2018-03-31T08:30:38.945Z,82.36
2018-03-31T08:31:46.996Z,82.27
2018-03-31T08:32:55.006Z,83.31
2018-03-31T08:34:03.300Z,84.26
2018-03-31T08:35:11.139Z,83.88
2018-03-31T08:36:19.314Z,83.40
2018-03-31T08:37:27.278Z,83.22
2018-03-31T08:38:35.401Z,82.84
2018-03-31T08:39:43.735Z,81.60
2018-03-31T08:40:51.596Z,81.26
2018-03-31T08:41:59.514Z,81.51
2018-03-31T08:43:08.232Z,82.84
2018-03-31T08:44:15.930Z,81.79
2018-03-31T08:45:23.710Z,80.75
2018-03-31T08:46:32.355Z,80.98
2018-03-31T08:47:39.832Z,82.55
2018-03-31T08:48:48.303Z,82.31
2018-03-31T08:49:56.014Z,81.65
2018-03-31T08:51:04.101Z,82.40
2018-03-31T08:52:12.579Z,80.98
2018-03-31T08:53:20.602Z,81.36
2018-03-31T08:54:28.252Z,81.55
2018-03-31T08:55:36.552Z,81.74
2018-03-31T08:56:44.909Z,81.17
2018-03-31T08:57:52.386Z,82.59
2018-03-31T08:59:01.034Z,81.84
2018-03-31T09:00:08.811Z,81.36
2018-03-31T09:01:16.913Z,82.12
2018-03-31T09:02:24.948Z,81.74
2018-03-31T09:03:32.978Z,81.55
2018-03-31T09:04:41.149Z,81.26
2018-03-31T09:05:49.118Z,80.51
2018-03-31T09:06:57.236Z,81.65
2018-03-31T09:08:05.600Z,81.93
2018-03-31T09:09:13.857Z,82.31
2018-03-31T09:10:21.400Z,81.65
2018-03-31T09:11:29.498Z,80.69
2018-03-31T09:12:37.492Z,81.17
2018-03-31T09:13:45.545Z,82.21
2018-03-31T09:14:54.082Z,81.45
2018-03-31T09:16:01.664Z,82.59
2018-03-31T09:17:09.877Z,81.65
2018-03-31T09:18:17.789Z,82.17
2018-03-31T09:19:25.944Z,82.08
2018-03-31T09:20:33.940Z,82.27
2018-03-31T09:21:41.997Z,82.74
2018-03-31T09:22:50.098Z,83.03
2018-03-31T09:23:58.163Z,83.31
2018-03-31T09:25:06.183Z,82.65
2018-03-31T09:26:14.298Z,82.74
2018-03-31T09:27:22.351Z,82.55
2018-03-31T09:28:30.396Z,83.36
2018-03-31T09:29:38.480Z,81.74
2018-03-31T09:30:46.488Z,81.17
2018-03-31T09:31:54.608Z,80.22
2018-03-31T09:33:02.744Z,80.79
2018-03-31T09:34:10.674Z,81.30
2018-03-31T09:35:18.818Z,80.55
2018-03-31T09:36:26.800Z,80.26
2018-03-31T09:37:34.901Z,80.26
2018-03-31T09:38:43.036Z,79.60
2018-03-31T09:39:50.991Z,78.27
2018-03-31T09:40:59.209Z,77.70
2018-03-31T09:42:07.186Z,78.83
2018-03-31T09:43:15.171Z,79.88
2018-03-31T09:44:23.281Z,79.88
2018-03-31T09:45:31.461Z,78.27
2018-03-31T09:46:39.412Z,78.74
2018-03-31T09:47:47.494Z,78.27
2018-03-31T09:48:55.540Z,78.27
2018-03-31T09:50:03.588Z,79.69
2018-03-31T09:51:11.604Z,80.07
2018-03-31T09:52:19.725Z,79.88
2018-03-31T09:53:28.228Z,80.07
2018-03-31T09:55:43.927Z,79.41
2018-03-31T09:56:51.927Z,79.69
2018-03-31T09:58:00.048Z,78.74
2018-03-31T09:59:08.631Z,79.54
2018-03-31T10:00:16.630Z,79.35
2018-03-31T10:01:24.821Z,78.88
2018-03-31T10:02:32.922Z,79.63
2018-03-31T10:03:40.970Z,78.97
2018-03-31T10:05:02.093Z,77.36
2018-03-31T10:05:56.946Z,77.01
2018-03-31T10:07:09.072Z,75.87
2018-03-31T10:08:34.375Z,74.82
2018-03-31T10:09:27.165Z,75.78
2018-03-31T10:10:32.676Z,75.34
2018-03-31T10:11:37.231Z,73.53
2018-03-31T10:12:46.799Z,73.82
2018-03-31T10:13:53.380Z,73.25
2018-03-31T10:15:01.529Z,72.11
2018-03-31T10:16:09.545Z,72.30
2018-03-31T10:17:17.541Z,72.11
2018-03-31T10:18:25.722Z,72.30
2018-03-31T10:19:33.673Z,72.30
2018-03-31T10:20:41.816Z,71.91
2018-03-31T10:21:49.797Z,73.10
2018-03-31T10:22:57.952Z,72.24
2018-03-31T10:24:05.931Z,70.33
2018-03-31T10:25:14.168Z,68.90
2018-03-31T10:26:22.121Z,68.90
2018-03-31T10:27:30.172Z,71.00
2018-03-31T10:28:38.222Z,71.28
2018-03-31T10:29:46.332Z,71.86
2018-03-31T10:30:54.387Z,72.62
2018-03-31T10:32:02.436Z,72.39
2018-03-31T10:33:10.456Z,71.44
2018-03-31T10:34:18.620Z,72.42
2018-03-31T10:35:26.660Z,73.38
2018-03-31T10:36:34.684Z,72.14
2018-03-31T10:37:42.752Z,71.38
2018-03-31T10:38:50.798Z,72.14
2018-03-31T10:39:58.930Z,71.86
2018-03-31T10:41:06.929Z,71.53
2018-03-31T10:42:15.094Z,73.06
2018-03-31T10:43:23.091Z,73.34
2018-03-31T10:44:31.141Z,74.07
2018-03-31T10:45:39.234Z,74.35
2018-03-31T10:46:47.254Z,75.68
2018-03-31T10:47:55.325Z,76.06
2018-03-31T10:49:03.383Z,76.16
2018-03-31T10:50:11.527Z,74.92
2018-03-31T10:51:19.534Z,74.63
2018-03-31T10:52:27.592Z,75.59
2018-03-31T10:53:35.696Z,76.06
2018-03-31T10:54:43.746Z,75.87
2018-03-31T10:55:51.780Z,76.25
2018-03-31T10:56:59.906Z,75.49
2018-03-31T10:58:07.943Z,75.59
2018-03-31T10:59:16.090Z,76.16
2018-03-31T11:00:24.073Z,75.68
2018-03-31T11:01:32.177Z,76.73
2018-03-31T11:04:22.604Z,75.68
2018-03-31T11:07:19.266Z,77.45
2018-03-31T11:08:26.933Z,77.55
2018-03-31T11:09:35.053Z,78.11
2018-03-31T11:10:43.085Z,78.21
2018-03-31T11:11:51.221Z,78.11
2018-03-31T11:12:59.238Z,77.64
2018-03-31T11:14:07.361Z,76.97
2018-03-31T11:15:15.358Z,77.55
2018-03-31T11:16:23.472Z,78.17
2018-03-31T11:17:31.521Z,79.03
2018-03-31T11:22:04.517Z,80.83
2018-03-31T11:23:11.823Z,80.07
2018-03-31T11:24:19.883Z,80.55
2018-03-31T11:25:27.910Z,80.83
2018-03-31T11:26:36.033Z,80.83
2018-03-31T11:27:44.086Z,79.79
2018-03-31T11:28:52.169Z,79.60
2018-03-31T11:30:00.201Z,80.45
2018-03-31T11:31:08.316Z,80.58
2018-03-31T11:32:16.380Z,79.63
2018-03-31T11:33:24.405Z,79.06
2018-03-31T11:34:32.512Z,77.39
2018-03-31T11:35:40.529Z,77.58
2018-03-31T11:36:48.705Z,76.92
2018-03-31T11:37:56.649Z,75.24
2018-03-31T11:39:05.406Z,75.40
2018-03-31T11:40:12.867Z,74.67
2018-03-31T11:41:20.857Z,75.21
2018-03-31T11:42:28.926Z,75.68
2018-03-31T11:43:37.119Z,76.10
2018-03-31T11:44:44.992Z,75.05
2018-03-31T11:45:53.077Z,75.05
2018-03-31T11:47:01.190Z,73.25
2018-03-31T11:48:09.642Z,73.06
2018-03-31T11:49:17.327Z,74.39
2018-03-31T11:50:25.324Z,73.25
2018-03-31T11:51:33.391Z,71.82
2018-03-31T11:52:41.496Z,72.58
2018-03-31T11:53:49.511Z,73.15
2018-03-31T11:54:57.594Z,73.53
2018-03-31T11:56:05.690Z,73.00
2018-03-31T11:57:13.703Z,72.05
2018-03-31T11:58:21.770Z,71.91
2018-03-31T11:59:29.843Z,72.86
2018-03-31T12:00:37.915Z,72.71
2018-03-31T12:01:45.990Z,71.67
2018-03-31T12:02:54.047Z,70.43
2018-03-31T12:04:02.108Z,70.81
2018-03-31T12:05:10.190Z,70.18
2018-03-31T12:06:18.234Z,71.22
2018-03-31T12:07:26.483Z,69.70
2018-03-31T12:08:34.921Z,69.23
2018-03-31T12:09:42.502Z,68.94
2018-03-31T12:10:50.680Z,70.37
2018-03-31T12:11:59.046Z,69.07
2018-03-31T12:13:06.626Z,70.02
2018-03-31T12:14:14.694Z,69.64
2018-03-31T12:15:22.753Z,69.74
2018-03-31T12:16:31.421Z,68.78
2018-03-31T12:17:38.897Z,67.93
2018-03-31T12:18:46.987Z,68.78
2018-03-31T12:19:55.060Z,67.93
2018-03-31T12:21:03.104Z,67.83
2018-03-31T12:22:11.157Z,67.89
2018-03-31T12:23:19.262Z,68.18
2018-03-31T12:24:27.290Z,68.08
2018-03-31T12:25:35.651Z,68.08
2018-03-31T12:26:43.454Z,69.89
2018-03-31T12:27:51.477Z,69.99
2018-03-31T12:28:59.610Z,71.03
2018-03-31T12:30:07.757Z,70.65
2018-03-31T12:31:15.755Z,69.89
2018-03-31T12:32:23.780Z,68.94
2018-03-31T12:33:31.887Z,68.30
2018-03-31T12:34:39.906Z,68.18
2018-03-31T12:35:47.977Z,67.35
2018-03-31T12:36:56.066Z,66.59
2018-03-31T12:38:04.166Z,68.65
2018-03-31T12:39:12.292Z,68.88
2018-03-31T12:40:21.287Z,67.55
2018-03-31T12:41:28.371Z,66.97
2018-03-31T12:42:36.396Z,68.30
2018-03-31T12:43:44.409Z,68.98
2018-03-31T12:44:52.490Z,69.17
2018-03-31T12:46:00.571Z,68.98
2018-03-31T12:47:08.616Z,68.69
2018-03-31T12:48:16.751Z,68.50
2018-03-31T12:49:24.806Z,69.17
2018-03-31T12:50:32.867Z,69.17
2018-03-31T12:51:41.077Z,66.78
2018-03-31T12:52:49.701Z,66.69
2018-03-31T12:53:57.080Z,67.83
2018-03-31T12:55:05.177Z,67.93
2018-03-31T12:56:13.213Z,68.88
2018-03-31T12:57:21.273Z,69.17
2018-03-31T12:58:29.320Z,68.59
2018-03-31T12:59:37.412Z,68.98
2018-03-31T13:00:45.483Z,68.02
2018-03-31T13:01:53.504Z,67.13
2018-03-31T13:03:01.535Z,69.42
2018-03-31T13:04:09.598Z,68.84
2018-03-31T13:05:17.671Z,69.79
2018-03-31T13:06:25.792Z,71.51
2018-03-31T13:07:33.821Z,71.61
2018-03-31T13:08:41.890Z,71.42
2018-03-31T13:09:50.087Z,69.13
2018-03-31T13:10:58.021Z,69.13
2018-03-31T13:12:06.128Z,69.70
2018-03-31T13:13:14.182Z,69.04
2018-03-31T13:14:22.220Z,69.07
2018-03-31T13:15:30.319Z,68.50
2018-03-31T13:16:38.424Z,68.02
2018-03-31T13:17:46.457Z,67.74
2018-03-31T13:18:54.519Z,68.21
2018-03-31T13:20:02.632Z,68.02
2018-03-31T13:21:10.640Z,68.02
2018-03-31T13:22:18.666Z,67.64
2018-03-31T13:23:26.748Z,68.50
2018-03-31T13:24:34.833Z,68.94
2018-03-31T13:25:42.877Z,69.13
2018-03-31T13:26:50.939Z,70.37
2018-03-31T13:27:59.043Z,69.79
2018-03-31T13:29:07.090Z,70.47
2018-03-31T13:30:15.166Z,70.81
2018-03-31T13:31:23.264Z,71.00
2018-03-31T13:32:31.303Z,71.47
2018-03-31T13:33:39.375Z,72.33
2018-03-31T13:34:47.474Z,72.05
2018-03-31T13:35:55.476Z,73.00
2018-03-31T13:37:03.884Z,73.19
2018-03-31T13:38:11.657Z,73.03
2018-03-31T13:39:19.705Z,72.56
2018-03-31T13:40:27.793Z,70.78
2018-03-31T13:41:36.172Z,70.34
2018-03-31T13:42:43.915Z,68.53
2018-03-31T13:43:51.939Z,67.68
2018-03-31T13:44:59.986Z,65.70
2018-03-31T13:46:08.092Z,65.80
2018-03-31T13:47:16.143Z,65.13
2018-03-31T13:48:24.250Z,64.18
2018-03-31T13:49:32.323Z,63.32
2018-03-31T13:50:40.393Z,64.85
2018-03-31T13:51:48.430Z,64.56
2018-03-31T13:52:56.544Z,64.62
2018-03-31T13:54:04.534Z,66.09
2018-03-31T13:55:12.630Z,66.18
2018-03-31T13:56:20.704Z,65.99
2018-03-31T13:57:28.753Z,64.94
2018-03-31T13:58:36.842Z,64.75
2018-03-31T13:59:44.876Z,64.75
2018-03-31T14:00:52.907Z,62.18
2018-03-31T14:02:01.013Z,64.09
2018-03-31T14:03:09.071Z,64.85
2018-03-31T14:04:17.128Z,64.47
2018-03-31T14:05:25.204Z,64.47
2018-03-31T14:06:33.309Z,64.65
2018-03-31T14:07:41.372Z,66.56
2018-03-31T14:08:49.456Z,66.56
2018-03-31T14:09:57.492Z,65.33
2018-03-31T14:11:05.556Z,65.20
2018-03-31T14:12:13.607Z,66.34
2018-03-31T14:13:21.650Z,66.05
2018-03-31T14:14:29.706Z,65.77
2018-03-31T14:15:37.845Z,65.48
2018-03-31T14:16:45.893Z,67.96
2018-03-31T14:17:53.939Z,66.69
2018-03-31T14:19:01.987Z,65.45
2018-03-31T14:20:10.097Z,66.40
2018-03-31T14:21:18.178Z,68.69
2018-03-31T14:22:26.216Z,68.69
2018-03-31T14:23:34.305Z,69.17
2018-03-31T14:24:42.345Z,69.54
2018-03-31T14:25:50.461Z,69.93
2018-03-31T14:26:58.480Z,69.07
2018-03-31T14:28:06.557Z,69.64
2018-03-31T14:29:14.625Z,69.74
2018-03-31T14:30:22.692Z,69.74
2018-03-31T14:31:30.740Z,69.54
2018-03-31T14:32:38.847Z,69.83
2018-03-31T14:33:46.882Z,70.02
2018-03-31T14:34:54.953Z,69.48
2018-03-31T14:36:02.985Z,68.34
2018-03-31T14:37:11.030Z,68.34
2018-03-31T14:38:19.092Z,66.72
2018-03-31T14:39:27.245Z,66.82
2018-03-31T14:40:35.267Z,66.75
2018-03-31T14:41:43.294Z,65.70
2018-03-31T14:42:51.396Z,66.56
2018-03-31T14:43:59.476Z,67.52